Accord, New York
Current Conditions -  °F | °C
As of 9:54 PM on Monday 26 Jan 2015 (Local Time) from KMGJ Reporting Station
Light Snow Light Snow  
Wind Chill: -16°   Ceiling: 4200
Heat Index: -7°   Visibility: 3mi
Dew Point: -8°   Wind: 22mph
Humidity: 89%   Direction: 30°NNE
Pressure: 29.83"   Gusts: 29mph
Location:  41.79°N, 74.23°W
Report Text: KMGJ 270254Z AUTO 03019G25KT 3SM -SN BR BKN042 OVC085 M07/M08 A2983 RMK AO2 SNB05 SLP108 P0000 60000 T10671083 58022 TSNO
Loading
Personal Weather Stations






























Interactive Weather Map New forecast layout! Learn more

10-Day Weather Forecast

Advertisements
Track Severe Weather on mobile